createdAt,value
2022-12-23T00:03:55.790Z,80.80
2022-12-23T00:12:16.142Z,82.00
2022-12-23T00:20:21.709Z,81.20
2022-12-23T00:28:31.110Z,83.40
2022-12-23T00:36:47.251Z,82.60
2022-12-23T00:45:16.054Z,82.40
2022-12-23T00:53:21.822Z,81.80
2022-12-23T01:01:42.970Z,80.70
2022-12-23T01:09:48.726Z,81.70
2022-12-23T01:17:56.646Z,81.70
2022-12-23T01:26:03.027Z,80.60
2022-12-23T01:34:11.006Z,79.50
2022-12-23T01:42:29.744Z,80.40
2022-12-23T01:50:41.434Z,80.00
2022-12-23T01:58:51.244Z,80.80
2022-12-23T02:07:12.197Z,80.20
2022-12-23T02:15:46.485Z,79.00
2022-12-23T02:24:27.605Z,79.00
2022-12-23T02:32:45.887Z,78.60
2022-12-23T02:41:01.860Z,79.10
2022-12-23T02:49:15.435Z,79.50
2022-12-23T02:57:24.914Z,79.50
2022-12-23T03:05:39.228Z,79.70
2022-12-23T03:14:08.980Z,79.80
2022-12-23T03:22:27.585Z,79.70
2022-12-23T03:30:34.096Z,80.30
2022-12-23T03:38:44.347Z,80.40
2022-12-23T03:46:53.319Z,80.70
2022-12-23T03:55:05.028Z,81.30
2022-12-23T04:03:20.655Z,81.70
2022-12-23T04:11:28.867Z,82.50
2022-12-23T04:19:35.709Z,82.40
2022-12-23T04:27:44.138Z,82.40
2022-12-23T04:35:49.586Z,82.60
2022-12-23T04:43:59.869Z,82.80
2022-12-23T04:52:05.190Z,82.60
2022-12-23T05:00:14.594Z,82.50
2022-12-23T05:08:20.045Z,82.40
2022-12-23T05:16:28.382Z,82.10
2022-12-23T05:24:33.994Z,82.50
2022-12-23T05:32:42.229Z,82.80
2022-12-23T05:40:47.654Z,82.40
2022-12-23T05:48:55.725Z,82.50
2022-12-23T05:57:01.000Z,82.60
2022-12-23T06:05:09.841Z,83.40
2022-12-23T06:13:18.042Z,83.60
2022-12-23T06:21:26.339Z,83.80
2022-12-23T06:29:31.801Z,84.70
2022-12-23T06:37:39.875Z,84.20
2022-12-23T06:45:50.302Z,84.40
2022-12-23T06:53:58.213Z,85.00
2022-12-23T07:02:03.724Z,85.20
2022-12-23T07:10:13.053Z,85.10
2022-12-23T07:18:18.455Z,83.80
2022-12-23T07:26:26.530Z,83.30
2022-12-23T07:34:32.067Z,82.00
2022-12-23T07:42:46.210Z,82.10
2022-12-23T07:50:52.263Z,82.10
2022-12-23T07:59:02.414Z,81.10
2022-12-23T08:07:08.760Z,82.20
2022-12-23T08:15:16.937Z,83.90
2022-12-23T08:23:24.914Z,76.80
2022-12-23T08:31:33.927Z,67.90
2022-12-23T08:39:39.555Z,75.00
2022-12-23T08:47:47.560Z,75.80
2022-12-23T08:55:52.943Z,74.80
2022-12-23T09:04:01.129Z,74.70
2022-12-23T09:12:07.652Z,75.00
2022-12-23T09:20:16.674Z,74.80
2022-12-23T09:28:22.113Z,63.20
2022-12-23T09:36:30.285Z,54.10
2022-12-23T09:44:56.203Z,49.50
2022-12-23T09:53:08.661Z,49.30
2022-12-23T10:01:25.072Z,48.20
2022-12-23T10:09:37.751Z,46.00
2022-12-23T10:17:45.536Z,49.60
2022-12-23T10:25:56.214Z,56.50
2022-12-23T10:34:10.413Z,61.40
2022-12-23T10:42:26.062Z,66.50
2022-12-23T10:50:46.326Z,69.10
2022-12-23T10:58:58.720Z,70.10
2022-12-23T11:07:42.979Z,72.70
2022-12-23T11:15:39.500Z,74.60
2022-12-23T11:23:44.931Z,73.20
2022-12-23T11:31:56.014Z,73.40
2022-12-23T11:40:01.501Z,73.70
2022-12-23T11:48:29.411Z,73.80
2022-12-23T11:56:40.566Z,73.40
2022-12-23T12:04:58.441Z,74.20
2022-12-23T12:13:06.807Z,74.60
2022-12-23T12:21:20.046Z,77.40
2022-12-23T12:29:31.601Z,78.50
2022-12-23T12:37:46.069Z,79.60
2022-12-23T12:45:55.698Z,81.60
2022-12-23T12:54:24.086Z,80.80
2022-12-23T13:02:47.296Z,80.90
2022-12-23T13:11:01.084Z,79.80
2022-12-23T13:19:15.155Z,81.20
2022-12-23T13:27:28.667Z,81.00
2022-12-23T13:35:50.213Z,81.50
2022-12-23T13:44:02.341Z,81.20
2022-12-23T13:52:13.846Z,80.50
2022-12-23T14:00:32.297Z,80.80
2022-12-23T14:08:44.954Z,80.90
2022-12-23T14:17:07.112Z,80.60
2022-12-23T14:25:46.734Z,80.80
2022-12-23T14:33:55.057Z,81.40
2022-12-23T14:42:06.107Z,81.60
2022-12-23T14:50:44.184Z,81.40
2022-12-23T14:59:15.649Z,80.90
2022-12-23T15:07:29.118Z,80.70
2022-12-23T15:15:34.777Z,80.60
2022-12-23T15:23:51.464Z,80.60
2022-12-23T15:32:00.171Z,80.60
2022-12-23T15:40:13.248Z,80.40
2022-12-23T15:48:31.106Z,80.40
2022-12-23T15:56:43.991Z,80.50
2022-12-23T16:04:56.269Z,80.50
2022-12-23T16:13:04.375Z,80.40
2022-12-23T16:21:16.926Z,81.10
2022-12-23T16:29:25.454Z,80.80
2022-12-23T16:37:30.844Z,81.00
2022-12-23T16:45:39.850Z,81.20
2022-12-23T16:53:45.493Z,81.30
2022-12-23T17:01:58.175Z,81.60
2022-12-23T17:10:09.552Z,81.30
2022-12-23T17:18:20.268Z,82.10
2022-12-23T17:26:25.567Z,82.50
2022-12-23T17:34:33.679Z,82.90
2022-12-23T17:42:39.049Z,83.10
2022-12-23T17:50:47.622Z,85.10
2022-12-23T17:58:54.166Z,86.00
2022-12-23T18:07:02.236Z,87.40
2022-12-23T18:15:10.546Z,88.30
2022-12-23T18:23:24.209Z,89.60
2022-12-23T18:31:29.720Z,90.10
2022-12-23T18:39:37.935Z,90.40
2022-12-23T18:47:43.297Z,90.60
2022-12-23T18:55:51.824Z,90.60
2022-12-23T19:03:57.746Z,90.80
2022-12-23T19:12:05.948Z,90.40
2022-12-23T19:20:14.457Z,90.00
2022-12-23T19:28:22.373Z,89.60
2022-12-23T19:36:27.781Z,88.70
2022-12-23T19:44:35.865Z,87.90
2022-12-23T19:52:41.591Z,86.80
2022-12-23T20:00:49.760Z,86.00
2022-12-23T20:09:00.271Z,85.90
2022-12-23T20:17:08.898Z,86.60
2022-12-23T20:25:14.337Z,86.60
2022-12-23T20:33:22.433Z,86.80
2022-12-23T20:41:31.338Z,86.70
2022-12-23T20:49:39.545Z,87.00
2022-12-23T20:57:48.922Z,87.50
2022-12-23T21:05:59.689Z,87.80
2022-12-23T21:14:07.173Z,88.00
2022-12-23T21:22:15.554Z,87.60
2022-12-23T21:30:21.620Z,87.60
2022-12-23T21:38:33.120Z,87.90
2022-12-23T21:46:49.345Z,88.00
2022-12-23T21:54:57.458Z,87.70
2022-12-23T22:03:03.276Z,88.80
2022-12-23T22:11:13.659Z,88.40
2022-12-23T22:19:19.700Z,88.90
2022-12-23T22:27:35.079Z,89.40
2022-12-23T22:35:40.919Z,89.20
2022-12-23T22:43:51.003Z,89.80
2022-12-23T22:51:57.699Z,88.90
2022-12-23T23:00:11.909Z,88.70
2022-12-23T23:08:18.172Z,88.80
2022-12-23T23:16:27.381Z,88.80
2022-12-23T23:24:32.814Z,89.30
2022-12-23T23:32:41.093Z,89.90
2022-12-23T23:40:49.559Z,89.60
2022-12-23T23:49:00.305Z,88.70
2022-12-23T23:57:06.118Z,90.00
